sensor_id;sensor_type;location;lat;lon;timestamp;pressure;altitude;pressure_sealevel;temperature;humidity
75051;BME280;63628;47.656;11.310;2022-12-20T00:00:51;95540.03;;;1.56;89.44
75051;BME280;63628;47.656;11.310;2022-12-20T00:03:17;95529.91;;;1.53;89.66
75051;BME280;63628;47.656;11.310;2022-12-20T00:05:46;95530.72;;;1.54;89.16
75051;BME280;63628;47.656;11.310;2022-12-20T00:08:13;95523.41;;;1.57;89.40
75051;BME280;63628;47.656;11.310;2022-12-20T00:10:42;95531.38;;;1.56;89.06
75051;BME280;63628;47.656;11.310;2022-12-20T00:13:10;95536.75;;;1.54;89.07
75051;BME280;63628;47.656;11.310;2022-12-20T00:15:37;95534.31;;;1.53;89.11
75051;BME280;63628;47.656;11.310;2022-12-20T00:18:04;95524.53;;;1.55;89.28
75051;BME280;63628;47.656;11.310;2022-12-20T00:20:30;95522.75;;;1.55;89.11
75051;BME280;63628;47.656;11.310;2022-12-20T00:22:57;95522.59;;;1.57;88.82
75051;BME280;63628;47.656;11.310;2022-12-20T00:25:24;95520.97;;;1.56;89.32
75051;BME280;63628;47.656;11.310;2022-12-20T00:27:52;95531.22;;;1.57;88.70
75051;BME280;63628;47.656;11.310;2022-12-20T00:30:19;95528.63;;;1.57;89.16
75051;BME280;63628;47.656;11.310;2022-12-20T00:32:45;95528.31;;;1.61;89.00
75051;BME280;63628;47.656;11.310;2022-12-20T00:35:12;95519.00;;;1.58;88.81
75051;BME280;63628;47.656;11.310;2022-12-20T00:37:39;95517.53;;;1.55;88.64
75051;BME280;63628;47.656;11.310;2022-12-20T00:40:07;95520.97;;;1.56;88.68
75051;BME280;63628;47.656;11.310;2022-12-20T00:42:34;95524.50;;;1.39;88.79
75051;BME280;63628;47.656;11.310;2022-12-20T00:45:02;95515.91;;;1.54;89.33
75051;BME280;63628;47.656;11.310;2022-12-20T00:47:28;95517.53;;;1.55;89.20
75051;BME280;63628;47.656;11.310;2022-12-20T00:49:55;95524.22;;;1.58;88.94
75051;BME280;63628;47.656;11.310;2022-12-20T00:52:21;95522.44;;;1.58;88.68
75051;BME280;63628;47.656;11.310;2022-12-20T00:54:48;95523.03;;;1.44;87.94
75051;BME280;63628;47.656;11.310;2022-12-20T00:57:15;95525.66;;;1.44;89.12
75051;BME280;63628;47.656;11.310;2022-12-20T00:59:41;95514.44;;;1.52;89.45
75051;BME280;63628;47.656;11.310;2022-12-20T01:02:09;95522.44;;;1.58;89.13
75051;BME280;63628;47.656;11.310;2022-12-20T01:04:36;95523.41;;;1.57;88.96
75051;BME280;63628;47.656;11.310;2022-12-20T01:07:03;95523.41;;;1.57;88.91
75051;BME280;63628;47.656;11.310;2022-12-20T01:09:30;95538.91;;;1.59;88.87
75051;BME280;63628;47.656;11.310;2022-12-20T01:11:56;95538.06;;;1.58;88.86
75051;BME280;63628;47.656;11.310;2022-12-20T01:14:23;95533.69;;;1.59;88.70
75051;BME280;63628;47.656;11.310;2022-12-20T01:16:50;95530.09;;;1.60;88.60
75051;BME280;63628;47.656;11.310;2022-12-20T01:19:18;95534.66;;;1.58;88.61
75051;BME280;63628;47.656;11.310;2022-12-20T01:21:44;95532.88;;;1.58;88.70
75051;BME280;63628;47.656;11.310;2022-12-20T01:24:12;95523.25;;;1.59;88.56
75051;BME280;63628;47.656;11.310;2022-12-20T01:26:38;95525.69;;;1.61;88.86
75051;BME280;63628;47.656;11.310;2022-12-20T01:29:05;95523.59;;;1.64;88.70
75051;BME280;63628;47.656;11.310;2022-12-20T01:31:32;95514.13;;;1.63;89.18
75051;BME280;63628;47.656;11.310;2022-12-20T01:33:59;95504.00;;;1.60;88.44
75051;BME280;63628;47.656;11.310;2022-12-20T01:36:29;95518.69;;;1.61;88.51
75051;BME280;63628;47.656;11.310;2022-12-20T01:38:57;95517.06;;;1.60;89.02
75051;BME280;63628;47.656;11.310;2022-12-20T01:41:25;95517.72;;;1.62;88.99
75051;BME280;63628;47.656;11.310;2022-12-20T01:43:53;95517.38;;;1.57;88.37
75051;BME280;63628;47.656;11.310;2022-12-20T01:46:22;95515.34;;;1.01;87.61
75051;BME280;63628;47.656;11.310;2022-12-20T01:48:52;95514.22;;;1.37;88.04
75051;BME280;63628;47.656;11.310;2022-12-20T01:51:20;95508.72;;;1.48;88.81
75051;BME280;63628;47.656;11.310;2022-12-20T01:53:53;95515.09;;;1.54;88.97
75051;BME280;63628;47.656;11.310;2022-12-20T01:56:21;95512.00;;;1.58;88.84
75051;BME280;63628;47.656;11.310;2022-12-20T01:58:49;95517.22;;;1.58;88.50
75051;BME280;63628;47.656;11.310;2022-12-20T02:01:18;95519.00;;;1.58;88.33
75051;BME280;63628;47.656;11.310;2022-12-20T02:03:45;95528.31;;;1.61;88.40
75051;BME280;63628;47.656;11.310;2022-12-20T02:06:14;95527.75;;;1.41;86.86
75051;BME280;63628;47.656;11.310;2022-12-20T02:08:42;95515.09;;;1.54;88.14
75051;BME280;63628;47.656;11.310;2022-12-20T02:11:20;95517.38;;;1.57;88.58
75051;BME280;63628;47.656;11.310;2022-12-20T02:13:56;95505.00;;;1.59;88.48
75051;BME280;63628;47.656;11.310;2022-12-20T02:16:27;95501.56;;;1.58;88.24
75051;BME280;63628;47.656;11.310;2022-12-20T02:18:59;95494.56;;;1.59;88.36
75051;BME280;63628;47.656;11.310;2022-12-20T02:21:33;95495.38;;;1.59;88.52
75051;BME280;63628;47.656;11.310;2022-12-20T02:27:32;95483.97;;;1.61;88.55
75051;BME280;63628;47.656;11.310;2022-12-20T02:30:07;95479.06;;;1.57;88.70
75051;BME280;63628;47.656;11.310;2022-12-20T02:32:38;95481.53;;;1.59;88.45
75051;BME280;63628;47.656;11.310;2022-12-20T02:35:07;95482.00;;;1.54;88.22
75051;BME280;63628;47.656;11.310;2022-12-20T02:37:34;95489.31;;;-1.31;80.55
75051;BME280;63628;47.656;11.310;2022-12-20T02:40:03;95475.00;;;0.71;89.61
75051;BME280;63628;47.656;11.310;2022-12-20T02:42:31;95473.63;;;1.35;89.65
75051;BME280;63628;47.656;11.310;2022-12-20T02:45:00;95479.41;;;0.26;82.97
75051;BME280;63628;47.656;11.310;2022-12-20T02:47:46;95479.63;;;-1.01;86.04
75051;BME280;63628;47.656;11.310;2022-12-20T02:50:16;95484.75;;;1.03;90.55
75051;BME280;63628;47.656;11.310;2022-12-20T02:52:44;95485.19;;;1.32;89.72
75051;BME280;63628;47.656;11.310;2022-12-20T02:55:11;95479.84;;;1.42;89.50
75051;BME280;63628;47.656;11.310;2022-12-20T02:57:42;95477.25;;;1.50;88.99
75051;BME280;63628;47.656;11.310;2022-12-20T03:00:14;95475.72;;;0.63;83.42
75051;BME280;63628;47.656;11.310;2022-12-20T03:02:43;95463.22;;;1.35;88.88
75051;BME280;63628;47.656;11.310;2022-12-20T03:05:29;95460.47;;;1.44;88.48
75051;BME280;63628;47.656;11.310;2022-12-20T03:07:58;95463.72;;;1.46;88.57
75051;BME280;63628;47.656;11.310;2022-12-20T03:10:25;95470.41;;;0.99;84.95
75051;BME280;63628;47.656;11.310;2022-12-20T03:12:52;95468.84;;;0.80;86.77
75051;BME280;63628;47.656;11.310;2022-12-20T03:15:18;95473.94;;;-0.87;84.21
75051;BME280;63628;47.656;11.310;2022-12-20T03:17:46;95472.50;;;0.95;89.48
75051;BME280;63628;47.656;11.310;2022-12-20T03:20:13;95470.00;;;1.27;89.44
75051;BME280;63628;47.656;11.310;2022-12-20T03:22:40;95471.06;;;1.43;88.62
75051;BME280;63628;47.656;11.310;2022-12-20T03:25:07;95477.06;;;-0.03;85.44
75051;BME280;63628;47.656;11.310;2022-12-20T03:27:34;95459.41;;;1.21;89.19
75051;BME280;63628;47.656;11.310;2022-12-20T03:30:00;95453.94;;;1.40;88.68
75051;BME280;63628;47.656;11.310;2022-12-20T03:32:27;95451.34;;;1.48;88.66
75051;BME280;63628;47.656;11.310;2022-12-20T03:34:55;95454.53;;;0.84;83.17
75051;BME280;63628;47.656;11.310;2022-12-20T03:37:21;95448.06;;;1.38;88.51
75051;BME280;63628;47.656;11.310;2022-12-20T03:39:48;95447.44;;;1.44;88.30
75051;BME280;63628;47.656;11.310;2022-12-20T03:42:15;95437.81;;;1.45;88.33
75051;BME280;63628;47.656;11.310;2022-12-20T03:44:41;95433.41;;;1.45;88.15
75051;BME280;63628;47.656;11.310;2022-12-20T03:47:08;95433.25;;;1.47;88.39
75051;BME280;63628;47.656;11.310;2022-12-20T03:49:35;95422.00;;;0.28;80.63
75051;BME280;63628;47.656;11.310;2022-12-20T03:52:03;95421.06;;;0.97;89.11
75051;BME280;63628;47.656;11.310;2022-12-20T03:54:29;95412.50;;;1.29;88.88
75051;BME280;63628;47.656;11.310;2022-12-20T03:56:56;95413.47;;;-0.26;80.96
75051;BME280;63628;47.656;11.310;2022-12-20T03:59:23;95411.97;;;-1.54;83.48
75051;BME280;63628;47.656;11.310;2022-12-20T04:01:49;95410.91;;;-0.44;87.02
75051;BME280;63628;47.656;11.310;2022-12-20T04:04:16;95406.09;;;-0.13;90.01
75051;BME280;63628;47.656;11.310;2022-12-20T04:06:42;95406.06;;;0.99;90.16
75051;BME280;63628;47.656;11.310;2022-12-20T04:09:11;95398.78;;;1.19;89.33
75051;BME280;63628;47.656;11.310;2022-12-20T04:11:37;95400.44;;;1.28;88.82
75051;BME280;63628;47.656;11.310;2022-12-20T04:14:05;95397.22;;;1.34;88.58
75051;BME280;63628;47.656;11.310;2022-12-20T04:16:31;95404.44;;;0.98;87.63
75051;BME280;63628;47.656;11.310;2022-12-20T04:18:58;95408.25;;;1.20;88.16
75051;BME280;63628;47.656;11.310;2022-12-20T04:21:27;95422.22;;;1.11;88.54
75051;BME280;63628;47.656;11.310;2022-12-20T04:23:55;95414.16;;;1.30;88.08
75051;BME280;63628;47.656;11.310;2022-12-20T04:26:23;95420.69;;;1.34;88.67
75051;BME280;63628;47.656;11.310;2022-12-20T04:28:50;95424.09;;;1.35;88.47
75051;BME280;63628;47.656;11.310;2022-12-20T04:31:17;95418.72;;;1.36;88.05
75051;BME280;63628;47.656;11.310;2022-12-20T04:33:50;95417.09;;;1.35;88.06
75051;BME280;63628;47.656;11.310;2022-12-20T04:36:16;95420.63;;;1.26;87.10
75051;BME280;63628;47.656;11.310;2022-12-20T04:38:43;95424.94;;;1.35;88.26
75051;BME280;63628;47.656;11.310;2022-12-20T04:41:09;95429.16;;;1.36;88.29
75051;BME280;63628;47.656;11.310;2022-12-20T04:43:50;95434.53;;;1.35;88.24
75051;BME280;63628;47.656;11.310;2022-12-20T04:46:17;95429.00;;;1.38;88.25
75051;BME280;63628;47.656;11.310;2022-12-20T04:48:44;95424.75;;;1.37;88.40
75051;BME280;63628;47.656;11.310;2022-12-20T04:51:26;95422.81;;;1.39;88.10
75051;BME280;63628;47.656;11.310;2022-12-20T04:53:53;95421.84;;;1.40;88.13
75051;BME280;63628;47.656;11.310;2022-12-20T04:56:22;95422.00;;;1.38;87.99
75051;BME280;63628;47.656;11.310;2022-12-20T04:58:52;95419.38;;;1.38;88.12
75051;BME280;63628;47.656;11.310;2022-12-20T05:01:20;95413.19;;;1.39;88.12
75051;BME280;63628;47.656;11.310;2022-12-20T05:03:47;95407.97;;;1.39;87.96
75051;BME280;63628;47.656;11.310;2022-12-20T05:06:15;95404.41;;;1.40;88.05
75051;BME280;63628;47.656;11.310;2022-12-20T05:08:42;95403.44;;;1.41;88.29
75051;BME280;63628;47.656;11.310;2022-12-20T05:11:10;95403.59;;;1.40;88.06
75051;BME280;63628;47.656;11.310;2022-12-20T05:13:37;95400.97;;;1.40;88.36
75051;BME280;63628;47.656;11.310;2022-12-20T05:16:06;95400.00;;;1.41;88.18
75051;BME280;63628;47.656;11.310;2022-12-20T05:18:32;95409.47;;;1.42;88.00
75051;BME280;63628;47.656;11.310;2022-12-20T05:21:00;95400.81;;;1.41;88.13
75051;BME280;63628;47.656;11.310;2022-12-20T05:23:56;95398.97;;;0.41;86.67
75051;BME280;63628;47.656;11.310;2022-12-20T05:26:42;95395.53;;;1.25;88.30
75051;BME280;63628;47.656;11.310;2022-12-20T05:29:08;95388.59;;;1.34;88.42
75051;BME280;63628;47.656;11.310;2022-12-20T05:31:36;95397.03;;;1.27;86.93
75051;BME280;63628;47.656;11.310;2022-12-20T05:34:03;95388.72;;;1.24;88.09
75051;BME280;63628;47.656;11.310;2022-12-20T05:36:30;95385.00;;;1.35;88.43
75051;BME280;63628;47.656;11.310;2022-12-20T05:38:56;95376.03;;;1.37;88.04
75051;BME280;63628;47.656;11.310;2022-12-20T05:41:29;95364.31;;;1.33;87.77
75051;BME280;63628;47.656;11.310;2022-12-20T05:43:56;95377.69;;;1.38;87.75
75051;BME280;63628;47.656;11.310;2022-12-20T05:46:23;95375.88;;;1.39;87.69
75051;BME280;63628;47.656;11.310;2022-12-20T05:48:51;95383.16;;;-0.17;85.52
75051;BME280;63628;47.656;11.310;2022-12-20T05:51:18;95365.38;;;1.06;89.18
75051;BME280;63628;47.656;11.310;2022-12-20T05:53:44;95361.16;;;1.13;88.31
75051;BME280;63628;47.656;11.310;2022-12-20T05:56:11;95366.56;;;1.28;88.02
75051;BME280;63628;47.656;11.310;2022-12-20T05:58:37;95379.94;;;1.33;87.91
75051;BME280;63628;47.656;11.310;2022-12-20T06:01:07;95383.22;;;1.35;88.16
75051;BME280;63628;47.656;11.310;2022-12-20T06:03:34;95380.91;;;0.40;85.56
75051;BME280;63628;47.656;11.310;2022-12-20T06:06:03;95372.25;;;1.15;88.59
75051;BME280;63628;47.656;11.310;2022-12-20T06:08:39;95375.88;;;1.31;88.37
75051;BME280;63628;47.656;11.310;2022-12-20T06:11:05;95378.47;;;1.31;87.67
75051;BME280;63628;47.656;11.310;2022-12-20T06:13:32;95365.41;;;1.14;87.44
75051;BME280;63628;47.656;11.310;2022-12-20T06:15:58;95373.72;;;1.26;87.81
75051;BME280;63628;47.656;11.310;2022-12-20T06:18:28;95377.50;;;1.32;88.05
75051;BME280;63628;47.656;11.310;2022-12-20T06:20:55;95383.22;;;1.35;87.70
75051;BME280;63628;47.656;11.310;2022-12-20T06:23:23;95375.22;;;1.37;88.09
75051;BME280;63628;47.656;11.310;2022-12-20T06:25:50;95370.03;;;1.37;87.97
75051;BME280;63628;47.656;11.310;2022-12-20T06:28:17;95362.03;;;1.38;87.67
75051;BME280;63628;47.656;11.310;2022-12-20T06:30:51;95357.97;;;1.36;87.96
75051;BME280;63628;47.656;11.310;2022-12-20T06:33:18;95362.31;;;1.19;87.56
75051;BME280;63628;47.656;11.310;2022-12-20T06:35:44;95358.97;;;0.42;84.15
75051;BME280;63628;47.656;11.310;2022-12-20T06:38:11;95361.94;;;0.55;87.35
75051;BME280;63628;47.656;11.310;2022-12-20T06:40:39;95353.69;;;1.18;88.41
75051;BME280;63628;47.656;11.310;2022-12-20T06:43:05;95351.72;;;1.28;88.28
75051;BME280;63628;47.656;11.310;2022-12-20T06:45:32;95346.22;;;1.32;88.42
75051;BME280;63628;47.656;11.310;2022-12-20T06:48:07;95350.31;;;1.34;87.97
75051;BME280;63628;47.656;11.310;2022-12-20T06:50:33;95348.44;;;1.02;88.33
75051;BME280;63628;47.656;11.310;2022-12-20T06:53:00;95343.25;;;1.26;88.20
75051;BME280;63628;47.656;11.310;2022-12-20T06:55:26;95347.41;;;-0.15;84.32
75051;BME280;63628;47.656;11.310;2022-12-20T06:57:54;95349.84;;;-0.75;84.66
75051;BME280;63628;47.656;11.310;2022-12-20T07:00:22;95350.38;;;-0.89;87.48
75051;BME280;63628;47.656;11.310;2022-12-20T07:02:48;95337.03;;;-1.12;88.73
75051;BME280;63628;47.656;11.310;2022-12-20T07:05:15;95331.38;;;0.57;90.38
75051;BME280;63628;47.656;11.310;2022-12-20T07:07:42;95329.03;;;0.97;89.65
75051;BME280;63628;47.656;11.310;2022-12-20T07:10:11;95329.41;;;1.10;89.02
75051;BME280;63628;47.656;11.310;2022-12-20T07:12:38;95328.59;;;1.17;88.04
75051;BME280;63628;47.656;11.310;2022-12-20T07:15:14;95329.16;;;-0.23;85.73
75051;BME280;63628;47.656;11.310;2022-12-20T07:17:41;95319.41;;;0.73;89.40
75051;BME280;63628;47.656;11.310;2022-12-20T07:20:09;95321.06;;;0.48;87.99
75051;BME280;63628;47.656;11.310;2022-12-20T07:22:40;95332.97;;;1.09;89.21
75051;BME280;63628;47.656;11.310;2022-12-20T07:25:07;95325.97;;;1.17;88.21
75051;BME280;63628;47.656;11.310;2022-12-20T07:27:33;95329.25;;;1.19;88.35
75051;BME280;63628;47.656;11.310;2022-12-20T07:30:00;95320.13;;;1.23;88.31
75051;BME280;63628;47.656;11.310;2022-12-20T07:32:28;95315.72;;;1.24;88.09
75051;BME280;63628;47.656;11.310;2022-12-20T07:34:55;95333.94;;;-0.37;84.61
75051;BME280;63628;47.656;11.310;2022-12-20T07:37:21;95329.16;;;-0.67;86.54
75051;BME280;63628;47.656;11.310;2022-12-20T07:39:48;95332.72;;;-0.68;86.42
75051;BME280;63628;47.656;11.310;2022-12-20T07:42:15;95342.19;;;0.03;90.05
75051;BME280;63628;47.656;11.310;2022-12-20T07:44:42;95344.25;;;-0.27;86.76
75051;BME280;63628;47.656;11.310;2022-12-20T07:47:09;95337.69;;;0.55;89.08
75051;BME280;63628;47.656;11.310;2022-12-20T07:49:37;95343.34;;;0.84;89.37
75051;BME280;63628;47.656;11.310;2022-12-20T07:52:04;95353.09;;;0.74;86.69
75051;BME280;63628;47.656;11.310;2022-12-20T07:54:35;95353.84;;;0.24;87.71
75051;BME280;63628;47.656;11.310;2022-12-20T07:57:02;95358.50;;;0.47;87.57
75051;BME280;63628;47.656;11.310;2022-12-20T07:59:37;95358.38;;;0.99;89.03
75051;BME280;63628;47.656;11.310;2022-12-20T08:02:06;95356.25;;;1.10;88.62
75051;BME280;63628;47.656;11.310;2022-12-20T08:04:39;95359.38;;;1.14;88.09
75051;BME280;63628;47.656;11.310;2022-12-20T08:07:06;95359.34;;;0.98;87.48
75051;BME280;63628;47.656;11.310;2022-12-20T08:09:36;95352.38;;;1.14;88.08
75051;BME280;63628;47.656;11.310;2022-12-20T08:12:06;95349.94;;;1.21;88.17
75051;BME280;63628;47.656;11.310;2022-12-20T08:14:34;95349.13;;;1.20;88.29
75051;BME280;63628;47.656;11.310;2022-12-20T08:17:00;95350.91;;;1.20;88.24
75051;BME280;63628;47.656;11.310;2022-12-20T08:19:27;95344.06;;;1.19;87.74
75051;BME280;63628;47.656;11.310;2022-12-20T08:21:59;95342.94;;;1.21;87.80
75051;BME280;63628;47.656;11.310;2022-12-20T08:24:26;95339.00;;;0.59;88.44
75051;BME280;63628;47.656;11.310;2022-12-20T08:26:53;95334.19;;;0.72;89.00
75051;BME280;63628;47.656;11.310;2022-12-20T08:29:19;95331.88;;;0.61;88.44
75051;BME280;63628;47.656;11.310;2022-12-20T08:31:46;95324.53;;;0.56;86.50
75051;BME280;63628;47.656;11.310;2022-12-20T08:34:16;95327.44;;;1.04;88.59
75051;BME280;63628;47.656;11.310;2022-12-20T08:36:42;95317.03;;;1.12;88.24
75051;BME280;63628;47.656;11.310;2022-12-20T08:39:10;95310.81;;;1.13;87.59
75051;BME280;63628;47.656;11.310;2022-12-20T08:41:37;95323.53;;;1.08;87.48
75051;BME280;63628;47.656;11.310;2022-12-20T08:44:04;95330.69;;;1.06;87.99
75051;BME280;63628;47.656;11.310;2022-12-20T08:46:31;95316.38;;;1.10;88.15
75051;BME280;63628;47.656;11.310;2022-12-20T08:48:58;95325.97;;;1.09;88.39
75051;BME280;63628;47.656;11.310;2022-12-20T08:51:25;95323.38;;;1.09;88.34
75051;BME280;63628;47.656;11.310;2022-12-20T08:53:51;95312.63;;;1.12;88.41
75051;BME280;63628;47.656;11.310;2022-12-20T08:56:19;95317.03;;;1.20;88.51
75051;BME280;63628;47.656;11.310;2022-12-20T08:58:46;95314.75;;;1.17;87.92
75051;BME280;63628;47.656;11.310;2022-12-20T09:01:15;95315.41;;;1.19;88.37
75051;BME280;63628;47.656;11.310;2022-12-20T09:03:42;95319.25;;;0.40;87.56
75051;BME280;63628;47.656;11.310;2022-12-20T09:06:12;95326.59;;;0.45;89.72
75051;BME280;63628;47.656;11.310;2022-12-20T09:08:39;95318.13;;;0.85;90.07
75051;BME280;63628;47.656;11.310;2022-12-20T09:11:07;95319.28;;;1.07;88.98
75051;BME280;63628;47.656;11.310;2022-12-20T09:13:36;95322.72;;;1.15;88.37
75051;BME280;63628;47.656;11.310;2022-12-20T09:16:10;95312.31;;;1.23;88.48
75051;BME280;63628;47.656;11.310;2022-12-20T09:18:37;95307.91;;;1.24;88.42
75051;BME280;63628;47.656;11.310;2022-12-20T09:21:05;95311.97;;;1.26;88.10
75051;BME280;63628;47.656;11.310;2022-12-20T09:23:33;95316.88;;;1.30;88.38
75051;BME280;63628;47.656;11.310;2022-12-20T09:26:01;95308.22;;;1.29;88.46
75051;BME280;63628;47.656;11.310;2022-12-20T09:28:29;95309.41;;;1.43;88.46
75051;BME280;63628;47.656;11.310;2022-12-20T09:30:58;95298.94;;;1.75;89.01
75051;BME280;63628;47.656;11.310;2022-12-20T09:33:25;95293.25;;;1.55;89.50
75051;BME280;63628;47.656;11.310;2022-12-20T09:35:52;95294.88;;;1.65;88.42
75051;BME280;63628;47.656;11.310;2022-12-20T09:38:19;95289.94;;;1.86;90.38
75051;BME280;63628;47.656;11.310;2022-12-20T09:40:47;95293.59;;;1.52;88.63
75051;BME280;63628;47.656;11.310;2022-12-20T09:43:15;95289.69;;;1.48;88.85
75051;BME280;63628;47.656;11.310;2022-12-20T09:45:44;95284.59;;;1.63;88.47
75051;BME280;63628;47.656;11.310;2022-12-20T09:48:16;95284.41;;;1.89;88.67
75051;BME280;63628;47.656;11.310;2022-12-20T09:50:53;95268.59;;;1.82;88.62
75051;BME280;63628;47.656;11.310;2022-12-20T09:53:29;95275.00;;;1.15;86.23
75051;BME280;63628;47.656;11.310;2022-12-20T09:56:00;95274.34;;;1.29;88.52
75051;BME280;63628;47.656;11.310;2022-12-20T09:58:55;95272.41;;;1.47;89.15
75051;BME280;63628;47.656;11.310;2022-12-20T10:01:24;95259.34;;;1.55;89.22
75051;BME280;63628;47.656;11.310;2022-12-20T10:04:02;95253.50;;;1.53;89.04
75051;BME280;63628;47.656;11.310;2022-12-20T10:06:39;95251.53;;;1.55;89.05
75051;BME280;63628;47.656;11.310;2022-12-20T10:09:25;95261.09;;;1.79;89.81
75051;BME280;63628;47.656;11.310;2022-12-20T10:12:00;95252.97;;;1.66;88.85
75051;BME280;63628;47.656;11.310;2022-12-20T10:14:46;95251.16;;;1.75;88.63
75051;BME280;63628;47.656;11.310;2022-12-20T10:17:24;95257.88;;;1.61;88.52
75051;BME280;63628;47.656;11.310;2022-12-20T10:20:13;95253.41;;;1.86;89.57
75051;BME280;63628;47.656;11.310;2022-12-20T10:22:49;95247.78;;;1.58;88.24
75051;BME280;63628;47.656;11.310;2022-12-20T10:25:20;95246.28;;;1.72;87.88
75051;BME280;63628;47.656;11.310;2022-12-20T10:27:53;95247.56;;;1.76;88.99
75051;BME280;63628;47.656;11.310;2022-12-20T10:30:24;95241.41;;;1.61;88.46
75051;BME280;63628;47.656;11.310;2022-12-20T10:32:53;95243.72;;;1.55;88.53
75051;BME280;63628;47.656;11.310;2022-12-20T10:35:26;95244.47;;;1.80;89.70
75051;BME280;63628;47.656;11.310;2022-12-20T10:37:59;95234.41;;;1.61;88.71
75051;BME280;63628;47.656;11.310;2022-12-20T10:40:37;95232.16;;;2.13;88.25
75051;BME280;63628;47.656;11.310;2022-12-20T10:43:24;95228.97;;;1.87;88.75
75051;BME280;63628;47.656;11.310;2022-12-20T10:45:56;95234.19;;;1.95;87.67
75051;BME280;63628;47.656;11.310;2022-12-20T10:48:29;95226.72;;;1.68;88.18
75051;BME280;63628;47.656;11.310;2022-12-20T10:51:00;95219.66;;;2.32;87.77
75051;BME280;63628;47.656;11.310;2022-12-20T10:53:28;95215.78;;;1.80;87.49
75051;BME280;63628;47.656;11.310;2022-12-20T10:56:12;95201.13;;;1.71;88.12
75051;BME280;63628;47.656;11.310;2022-12-20T10:58:39;95198.22;;;2.44;90.29
75051;BME280;63628;47.656;11.310;2022-12-20T11:01:11;95188.16;;;1.94;87.36
75051;BME280;63628;47.656;11.310;2022-12-20T11:03:57;95180.53;;;2.23;86.66
75051;BME280;63628;47.656;11.310;2022-12-20T11:06:29;95171.25;;;1.82;87.21
75051;BME280;63628;47.656;11.310;2022-12-20T11:09:23;95158.69;;;1.85;89.04
75051;BME280;63628;47.656;11.310;2022-12-20T11:11:59;95163.00;;;2.09;87.13
75051;BME280;63628;47.656;11.310;2022-12-20T11:14:26;95160.50;;;1.77;87.33
75051;BME280;63628;47.656;11.310;2022-12-20T11:17:05;95148.78;;;1.73;87.73
75051;BME280;63628;47.656;11.310;2022-12-20T11:20:02;95147.16;;;1.72;88.72
75051;BME280;63628;47.656;11.310;2022-12-20T11:22:40;95145.00;;;1.83;87.94
75051;BME280;63628;47.656;11.310;2022-12-20T11:25:24;95141.81;;;2.35;88.38
75051;BME280;63628;47.656;11.310;2022-12-20T11:28:08;95128.75;;;1.73;87.32
75051;BME280;63628;47.656;11.310;2022-12-20T11:30:46;95129.28;;;1.61;88.13
75051;BME280;63628;47.656;11.310;2022-12-20T11:33:32;95124.41;;;1.57;88.56
75051;BME280;63628;47.656;11.310;2022-12-20T11:36:05;95119.34;;;1.56;88.52
75051;BME280;63628;47.656;11.310;2022-12-20T11:38:41;95108.94;;;1.56;88.37
75051;BME280;63628;47.656;11.310;2022-12-20T11:41:17;95103.78;;;2.33;90.28
75051;BME280;63628;47.656;11.310;2022-12-20T11:43:57;95103.25;;;2.14;88.64
75051;BME280;63628;47.656;11.310;2022-12-20T11:46:57;95099.78;;;1.99;89.31
75051;BME280;63628;47.656;11.310;2022-12-20T11:49:45;95099.19;;;1.81;88.10
75051;BME280;63628;47.656;11.310;2022-12-20T11:52:20;95094.88;;;1.65;88.03
75051;BME280;63628;47.656;11.310;2022-12-20T11:55:00;95102.97;;;2.09;88.66
75051;BME280;63628;47.656;11.310;2022-12-20T11:57:35;95096.28;;;1.76;88.90
75051;BME280;63628;47.656;11.310;2022-12-20T12:00:24;95089.44;;;1.75;88.20
75051;BME280;63628;47.656;11.310;2022-12-20T12:02:56;95086.38;;;2.25;90.07
75051;BME280;63628;47.656;11.310;2022-12-20T12:05:27;95090.28;;;2.29;89.67
75051;BME280;63628;47.656;11.310;2022-12-20T12:08:02;95089.00;;;2.02;87.70
75051;BME280;63628;47.656;11.310;2022-12-20T12:10:33;95084.78;;;1.93;87.41
75051;BME280;63628;47.656;11.310;2022-12-20T12:13:06;95073.09;;;1.81;88.08
75051;BME280;63628;47.656;11.310;2022-12-20T12:15:41;95076.88;;;2.09;88.38
75051;BME280;63628;47.656;11.310;2022-12-20T12:18:16;95076.19;;;1.84;88.03
75051;BME280;63628;47.656;11.310;2022-12-20T12:20:49;95064.69;;;1.71;88.33
75051;BME280;63628;47.656;11.310;2022-12-20T12:23:22;95070.03;;;1.77;88.08
75051;BME280;63628;47.656;11.310;2022-12-20T12:25:51;95070.38;;;2.05;87.32
75051;BME280;63628;47.656;11.310;2022-12-20T12:28:19;95064.97;;;1.76;87.81
75051;BME280;63628;47.656;11.310;2022-12-20T12:30:51;95062.03;;;1.79;88.36
75051;BME280;63628;47.656;11.310;2022-12-20T12:33:24;95060.34;;;2.40;88.71
75051;BME280;63628;47.656;11.310;2022-12-20T12:36:18;95059.84;;;1.90;87.79
75051;BME280;63628;47.656;11.310;2022-12-20T12:39:09;95052.75;;;1.76;87.98
75051;BME280;63628;47.656;11.310;2022-12-20T12:42:06;95049.31;;;1.76;88.36
75051;BME280;63628;47.656;11.310;2022-12-20T12:44:39;95047.94;;;1.96;88.59
75051;BME280;63628;47.656;11.310;2022-12-20T12:47:13;95040.34;;;1.78;87.94
75051;BME280;63628;47.656;11.310;2022-12-20T12:49:42;95033.41;;;2.77;88.56
75051;BME280;63628;47.656;11.310;2022-12-20T12:52:27;95029.44;;;2.66;86.07
75051;BME280;63628;47.656;11.310;2022-12-20T12:55:01;95024.97;;;2.52;87.47
75051;BME280;63628;47.656;11.310;2022-12-20T12:57:57;95029.91;;;2.70;87.80
75051;BME280;63628;47.656;11.310;2022-12-20T13:00:46;95027.84;;;2.19;86.39
75051;BME280;63628;47.656;11.310;2022-12-20T13:03:16;95017.66;;;2.70;88.40
75051;BME280;63628;47.656;11.310;2022-12-20T13:09:19;95028.94;;;2.48;86.34
75051;BME280;63628;47.656;11.310;2022-12-20T13:11:46;95025.59;;;2.16;86.47
75051;BME280;63628;47.656;11.310;2022-12-20T13:14:48;95025.94;;;2.13;88.39
75051;BME280;63628;47.656;11.310;2022-12-20T13:17:47;95025.44;;;1.95;87.89
75051;BME280;63628;47.656;11.310;2022-12-20T13:20:18;95019.91;;;2.36;89.81
75051;BME280;63628;47.656;11.310;2022-12-20T13:23:12;95014.97;;;3.08;89.63
75051;BME280;63628;47.656;11.310;2022-12-20T13:25:40;95008.09;;;3.07;89.85